sensor_id;sensor_type;location;lat;lon;timestamp;temperature;humidity
20422;DHT22;10370;53.102;18.034;2023-03-14T00:04:07;11.50;99.90
20422;DHT22;10370;53.102;18.034;2023-03-14T00:09:30;11.40;99.90
20422;DHT22;10370;53.102;18.034;2023-03-14T00:14:53;11.30;99.90
20422;DHT22;10370;53.102;18.034;2023-03-14T00:20:18;11.30;99.90
20422;DHT22;10370;53.102;18.034;2023-03-14T00:25:45;11.30;99.90
20422;DHT22;10370;53.102;18.034;2023-03-14T00:31:09;11.20;99.90
20422;DHT22;10370;53.102;18.034;2023-03-14T00:36:32;11.30;99.90
20422;DHT22;10370;53.102;18.034;2023-03-14T00:41:58;11.30;99.90
20422;DHT22;10370;53.102;18.034;2023-03-14T01:20:38;11.10;99.90
20422;DHT22;10370;53.102;18.034;2023-03-14T01:26:03;11.10;99.90
20422;DHT22;10370;53.102;18.034;2023-03-14T01:31:30;11.00;99.90
20422;DHT22;10370;53.102;18.034;2023-03-14T01:36:55;10.90;99.90
20422;DHT22;10370;53.102;18.034;2023-03-14T01:42:20;10.90;99.90
20422;DHT22;10370;53.102;18.034;2023-03-14T01:47:46;10.80;99.90
20422;DHT22;10370;53.102;18.034;2023-03-14T01:53:11;10.90;99.90
20422;DHT22;10370;53.102;18.034;2023-03-14T01:58:37;10.80;99.90
20422;DHT22;10370;53.102;18.034;2023-03-14T02:04:03;10.90;99.90
20422;DHT22;10370;53.102;18.034;2023-03-14T02:09:27;10.90;99.90
20422;DHT22;10370;53.102;18.034;2023-03-14T02:14:53;10.90;99.90
20422;DHT22;10370;53.102;18.034;2023-03-14T02:20:33;11.00;99.90
20422;DHT22;10370;53.102;18.034;2023-03-14T02:26:10;11.10;99.90
20422;DHT22;10370;53.102;18.034;2023-03-14T02:31:37;11.10;99.90
20422;DHT22;10370;53.102;18.034;2023-03-14T02:37:02;11.10;99.90
20422;DHT22;10370;53.102;18.034;2023-03-14T02:42:28;11.00;99.90
20422;DHT22;10370;53.102;18.034;2023-03-14T02:47:57;11.00;99.90
20422;DHT22;10370;53.102;18.034;2023-03-14T02:53:33;11.10;99.90
20422;DHT22;10370;53.102;18.034;2023-03-14T02:59:01;11.10;99.90
20422;DHT22;10370;53.102;18.034;2023-03-14T03:04:26;11.10;99.90
20422;DHT22;10370;53.102;18.034;2023-03-14T03:09:51;11.10;99.90
20422;DHT22;10370;53.102;18.034;2023-03-14T03:15:17;11.10;99.90
20422;DHT22;10370;53.102;18.034;2023-03-14T03:20:42;11.10;99.90
20422;DHT22;10370;53.102;18.034;2023-03-14T03:26:08;11.00;99.90
20422;DHT22;10370;53.102;18.034;2023-03-14T03:31:31;11.00;99.90
20422;DHT22;10370;53.102;18.034;2023-03-14T03:36:59;11.00;99.90
20422;DHT22;10370;53.102;18.034;2023-03-14T03:42:23;11.00;99.90
20422;DHT22;10370;53.102;18.034;2023-03-14T03:47:48;11.00;99.90
20422;DHT22;10370;53.102;18.034;2023-03-14T03:53:13;10.90;99.90
20422;DHT22;10370;53.102;18.034;2023-03-14T03:58:51;10.80;99.90
20422;DHT22;10370;53.102;18.034;2023-03-14T04:04:14;10.80;99.90
20422;DHT22;10370;53.102;18.034;2023-03-14T04:09:40;10.70;99.90
20422;DHT22;10370;53.102;18.034;2023-03-14T04:15:06;10.70;99.90
20422;DHT22;10370;53.102;18.034;2023-03-14T04:20:29;10.70;99.90
20422;DHT22;10370;53.102;18.034;2023-03-14T04:25:52;10.80;99.90
20422;DHT22;10370;53.102;18.034;2023-03-14T04:31:20;10.80;99.90
20422;DHT22;10370;53.102;18.034;2023-03-14T04:36:43;10.70;99.90
20422;DHT22;10370;53.102;18.034;2023-03-14T04:42:09;10.60;99.90
20422;DHT22;10370;53.102;18.034;2023-03-14T04:47:32;10.60;99.90
20422;DHT22;10370;53.102;18.034;2023-03-14T04:52:57;10.50;99.90
20422;DHT22;10370;53.102;18.034;2023-03-14T04:58:21;10.40;99.90
20422;DHT22;10370;53.102;18.034;2023-03-14T05:03:44;10.50;99.90
20422;DHT22;10370;53.102;18.034;2023-03-14T05:09:12;10.50;99.90
20422;DHT22;10370;53.102;18.034;2023-03-14T05:14:40;10.40;99.90
20422;DHT22;10370;53.102;18.034;2023-03-14T05:20:03;10.30;99.90
20422;DHT22;10370;53.102;18.034;2023-03-14T05:25:37;10.30;99.90
20422;DHT22;10370;53.102;18.034;2023-03-14T05:31:05;10.30;99.90
20422;DHT22;10370;53.102;18.034;2023-03-14T05:36:30;10.30;99.90
20422;DHT22;10370;53.102;18.034;2023-03-14T05:41:55;10.30;99.90
20422;DHT22;10370;53.102;18.034;2023-03-14T05:47:22;10.20;99.90
20422;DHT22;10370;53.102;18.034;2023-03-14T05:52:48;10.30;99.90
20422;DHT22;10370;53.102;18.034;2023-03-14T05:58:13;10.30;99.90
20422;DHT22;10370;53.102;18.034;2023-03-14T06:03:37;10.20;99.90
20422;DHT22;10370;53.102;18.034;2023-03-14T06:09:00;10.30;99.90
20422;DHT22;10370;53.102;18.034;2023-03-14T06:14:26;10.30;99.90
20422;DHT22;10370;53.102;18.034;2023-03-14T06:19:51;10.30;99.90
20422;DHT22;10370;53.102;18.034;2023-03-14T06:25:12;10.30;99.90
20422;DHT22;10370;53.102;18.034;2023-03-14T06:30:34;10.40;99.90
20422;DHT22;10370;53.102;18.034;2023-03-14T06:35:55;10.50;99.90
20422;DHT22;10370;53.102;18.034;2023-03-14T06:41:20;10.60;99.90
20422;DHT22;10370;53.102;18.034;2023-03-14T06:46:45;10.60;99.90
20422;DHT22;10370;53.102;18.034;2023-03-14T06:52:06;10.60;99.90
20422;DHT22;10370;53.102;18.034;2023-03-14T06:57:28;10.60;99.90
20422;DHT22;10370;53.102;18.034;2023-03-14T07:02:53;10.60;99.90
20422;DHT22;10370;53.102;18.034;2023-03-14T07:08:16;10.60;99.90
20422;DHT22;10370;53.102;18.034;2023-03-14T07:13:41;10.70;99.90
20422;DHT22;10370;53.102;18.034;2023-03-14T07:19:07;10.90;99.90
20422;DHT22;10370;53.102;18.034;2023-03-14T07:24:33;11.10;99.90
20422;DHT22;10370;53.102;18.034;2023-03-14T07:29:54;11.10;99.90
20422;DHT22;10370;53.102;18.034;2023-03-14T07:35:17;11.20;99.90
20422;DHT22;10370;53.102;18.034;2023-03-14T07:40:42;11.30;99.90
20422;DHT22;10370;53.102;18.034;2023-03-14T07:46:05;11.30;99.90
20422;DHT22;10370;53.102;18.034;2023-03-14T07:51:30;11.30;99.90
20422;DHT22;10370;53.102;18.034;2023-03-14T07:56:56;11.30;99.90
20422;DHT22;10370;53.102;18.034;2023-03-14T08:02:20;11.30;99.90
20422;DHT22;10370;53.102;18.034;2023-03-14T08:07:43;11.30;99.90
20422;DHT22;10370;53.102;18.034;2023-03-14T08:13:04;11.30;99.90
20422;DHT22;10370;53.102;18.034;2023-03-14T08:18:25;11.40;99.90
20422;DHT22;10370;53.102;18.034;2023-03-14T08:23:48;11.40;99.90
20422;DHT22;10370;53.102;18.034;2023-03-14T08:29:11;11.40;99.90
20422;DHT22;10370;53.102;18.034;2023-03-14T08:34:35;11.50;99.90
20422;DHT22;10370;53.102;18.034;2023-03-14T08:40:04;11.50;99.90
20422;DHT22;10370;53.102;18.034;2023-03-14T08:45:27;11.60;99.90
20422;DHT22;10370;53.102;18.034;2023-03-14T08:50:50;11.70;99.90
20422;DHT22;10370;53.102;18.034;2023-03-14T08:56:15;11.80;99.90
20422;DHT22;10370;53.102;18.034;2023-03-14T09:01:40;11.70;99.90
20422;DHT22;10370;53.102;18.034;2023-03-14T09:07:03;11.60;99.90
20422;DHT22;10370;53.102;18.034;2023-03-14T09:12:29;11.60;99.90
20422;DHT22;10370;53.102;18.034;2023-03-14T09:17:53;11.80;99.90
20422;DHT22;10370;53.102;18.034;2023-03-14T09:23:18;12.00;99.90
20422;DHT22;10370;53.102;18.034;2023-03-14T09:28:44;12.30;99.90
20422;DHT22;10370;53.102;18.034;2023-03-14T09:34:07;12.50;99.90
20422;DHT22;10370;53.102;18.034;2023-03-14T09:39:30;12.60;99.90
20422;DHT22;10370;53.102;18.034;2023-03-14T09:45:02;12.70;99.90
20422;DHT22;10370;53.102;18.034;2023-03-14T09:50:36;12.70;99.90
20422;DHT22;10370;53.102;18.034;2023-03-14T09:56:02;12.80;99.90
20422;DHT22;10370;53.102;18.034;2023-03-14T10:01:31;13.00;99.90
20422;DHT22;10370;53.102;18.034;2023-03-14T10:06:56;13.00;99.90
20422;DHT22;10370;53.102;18.034;2023-03-14T10:12:20;12.90;99.90
20422;DHT22;10370;53.102;18.034;2023-03-14T10:17:58;12.80;99.90
20422;DHT22;10370;53.102;18.034;2023-03-14T10:23:28;12.60;99.90
20422;DHT22;10370;53.102;18.034;2023-03-14T10:29:01;12.60;99.90
20422;DHT22;10370;53.102;18.034;2023-03-14T10:34:25;12.60;99.90
20422;DHT22;10370;53.102;18.034;2023-03-14T10:39:55;12.70;99.90
20422;DHT22;10370;53.102;18.034;2023-03-14T10:51:11;12.90;99.90
20422;DHT22;10370;53.102;18.034;2023-03-14T10:56:36;13.10;99.90
20422;DHT22;10370;53.102;18.034;2023-03-14T11:07:42;13.00;99.90
20422;DHT22;10370;53.102;18.034;2023-03-14T11:36:09;13.20;99.90
20422;DHT22;10370;53.102;18.034;2023-03-14T11:41:38;13.30;99.90
20422;DHT22;10370;53.102;18.034;2023-03-14T11:52:50;13.40;99.90
20422;DHT22;10370;53.102;18.034;2023-03-14T11:58:35;13.50;99.90
20422;DHT22;10370;53.102;18.034;2023-03-14T12:09:26;13.50;99.90
20422;DHT22;10370;53.102;18.034;2023-03-14T12:15:00;13.30;99.90
20422;DHT22;10370;53.102;18.034;2023-03-14T12:20:25;13.30;99.90
20422;DHT22;10370;53.102;18.034;2023-03-14T12:26:07;13.30;99.90
20422;DHT22;10370;53.102;18.034;2023-03-14T12:31:43;13.30;99.90
20422;DHT22;10370;53.102;18.034;2023-03-14T12:37:11;13.50;99.90
20422;DHT22;10370;53.102;18.034;2023-03-14T12:42:45;13.50;99.90
20422;DHT22;10370;53.102;18.034;2023-03-14T12:48:22;13.40;99.90
20422;DHT22;10370;53.102;18.034;2023-03-14T12:59:57;13.30;99.90
20422;DHT22;10370;53.102;18.034;2023-03-14T13:05:24;13.10;99.90
20422;DHT22;10370;53.102;18.034;2023-03-14T13:10:49;13.00;99.90
20422;DHT22;10370;53.102;18.034;2023-03-14T13:16:20;13.00;99.90
20422;DHT22;10370;53.102;18.034;2023-03-14T13:21:45;13.00;99.90
20422;DHT22;10370;53.102;18.034;2023-03-14T13:27:17;13.00;99.90
20422;DHT22;10370;53.102;18.034;2023-03-14T13:32:46;13.00;99.90
20422;DHT22;10370;53.102;18.034;2023-03-14T13:38:18;13.10;99.90
20422;DHT22;10370;53.102;18.034;2023-03-14T13:43:42;13.20;99.90
20422;DHT22;10370;53.102;18.034;2023-03-14T13:49:10;13.20;99.90
20422;DHT22;10370;53.102;18.034;2023-03-14T13:54:34;13.10;99.90
20422;DHT22;10370;53.102;18.034;2023-03-14T14:00:19;13.10;99.90
20422;DHT22;10370;53.102;18.034;2023-03-14T14:05:45;13.10;99.90
20422;DHT22;10370;53.102;18.034;2023-03-14T14:11:08;13.20;99.90
20422;DHT22;10370;53.102;18.034;2023-03-14T14:16:34;13.20;99.90
20422;DHT22;10370;53.102;18.034;2023-03-14T14:21:58;13.20;99.90
20422;DHT22;10370;53.102;18.034;2023-03-14T14:27:35;13.20;99.90
20422;DHT22;10370;53.102;18.034;2023-03-14T14:33:19;13.10;99.90
20422;DHT22;10370;53.102;18.034;2023-03-14T14:38:42;13.10;99.90
20422;DHT22;10370;53.102;18.034;2023-03-14T14:44:07;13.30;99.90
20422;DHT22;10370;53.102;18.034;2023-03-14T14:49:32;13.40;99.90
20422;DHT22;10370;53.102;18.034;2023-03-14T14:54:59;13.80;99.90
20422;DHT22;10370;53.102;18.034;2023-03-14T15:00:27;13.80;99.90
20422;DHT22;10370;53.102;18.034;2023-03-14T15:05:50;13.60;99.90
20422;DHT22;10370;53.102;18.034;2023-03-14T15:11:22;13.40;99.90
20422;DHT22;10370;53.102;18.034;2023-03-14T15:16:44;13.30;99.90
20422;DHT22;10370;53.102;18.034;2023-03-14T15:22:11;13.20;99.90
20422;DHT22;10370;53.102;18.034;2023-03-14T15:27:38;13.30;99.90
20422;DHT22;10370;53.102;18.034;2023-03-14T15:33:05;13.30;99.90
20422;DHT22;10370;53.102;18.034;2023-03-14T15:38:31;13.30;99.90
20422;DHT22;10370;53.102;18.034;2023-03-14T15:43:55;13.20;99.90
20422;DHT22;10370;53.102;18.034;2023-03-14T15:49:17;13.10;99.90
20422;DHT22;10370;53.102;18.034;2023-03-14T15:54:40;12.90;99.90
20422;DHT22;10370;53.102;18.034;2023-03-14T16:00:04;12.80;99.90
20422;DHT22;10370;53.102;18.034;2023-03-14T16:05:28;12.80;99.90
20422;DHT22;10370;53.102;18.034;2023-03-14T16:10:51;12.70;99.90
20422;DHT22;10370;53.102;18.034;2023-03-14T16:16:16;12.80;99.90
20422;DHT22;10370;53.102;18.034;2023-03-14T16:21:41;12.70;99.90
20422;DHT22;10370;53.102;18.034;2023-03-14T16:27:07;12.60;99.90
20422;DHT22;10370;53.102;18.034;2023-03-14T16:32:32;12.50;99.90
20422;DHT22;10370;53.102;18.034;2023-03-14T16:37:59;12.40;99.90
20422;DHT22;10370;53.102;18.034;2023-03-14T16:43:26;12.40;99.90
20422;DHT22;10370;53.102;18.034;2023-03-14T16:48:53;12.20;99.90
20422;DHT22;10370;53.102;18.034;2023-03-14T16:54:18;12.20;99.90
20422;DHT22;10370;53.102;18.034;2023-03-14T16:59:45;12.20;99.90
20422;DHT22;10370;53.102;18.034;2023-03-14T17:05:14;12.00;99.90
20422;DHT22;10370;53.102;18.034;2023-03-14T17:10:43;11.80;99.90
20422;DHT22;10370;53.102;18.034;2023-03-14T17:16:06;11.70;99.90
20422;DHT22;10370;53.102;18.034;2023-03-14T17:21:28;11.60;99.90
20422;DHT22;10370;53.102;18.034;2023-03-14T17:26:52;11.60;99.90
20422;DHT22;10370;53.102;18.034;2023-03-14T17:32:15;11.60;99.90
20422;DHT22;10370;53.102;18.034;2023-03-14T17:37:41;11.60;99.90
20422;DHT22;10370;53.102;18.034;2023-03-14T17:43:06;11.60;99.90
20422;DHT22;10370;53.102;18.034;2023-03-14T17:48:31;11.40;99.90
20422;DHT22;10370;53.102;18.034;2023-03-14T17:53:56;11.30;99.90
20422;DHT22;10370;53.102;18.034;2023-03-14T17:59:20;11.20;99.90
20422;DHT22;10370;53.102;18.034;2023-03-14T18:04:43;11.30;99.90
20422;DHT22;10370;53.102;18.034;2023-03-14T18:10:06;11.20;99.90
20422;DHT22;10370;53.102;18.034;2023-03-14T18:15:33;11.20;99.90
20422;DHT22;10370;53.102;18.034;2023-03-14T18:20:57;11.10;99.90
20422;DHT22;10370;53.102;18.034;2023-03-14T18:26:22;11.10;99.90
20422;DHT22;10370;53.102;18.034;2023-03-14T18:31:51;11.00;99.90
20422;DHT22;10370;53.102;18.034;2023-03-14T18:37:16;10.90;99.90
20422;DHT22;10370;53.102;18.034;2023-03-14T18:42:39;10.80;99.90
20422;DHT22;10370;53.102;18.034;2023-03-14T18:48:05;10.70;99.90
20422;DHT22;10370;53.102;18.034;2023-03-14T18:53:28;10.60;99.90
20422;DHT22;10370;53.102;18.034;2023-03-14T18:58:54;10.60;99.90
20422;DHT22;10370;53.102;18.034;2023-03-14T19:04:17;10.40;99.90
20422;DHT22;10370;53.102;18.034;2023-03-14T19:09:42;10.30;99.90
20422;DHT22;10370;53.102;18.034;2023-03-14T19:15:08;10.30;99.90
20422;DHT22;10370;53.102;18.034;2023-03-14T19:20:31;10.20;99.90
20422;DHT22;10370;53.102;18.034;2023-03-14T19:25:56;10.30;99.90
20422;DHT22;10370;53.102;18.034;2023-03-14T19:31:22;10.30;99.90
20422;DHT22;10370;53.102;18.034;2023-03-14T19:36:47;10.30;99.90
20422;DHT22;10370;53.102;18.034;2023-03-14T19:42:11;10.30;99.90
20422;DHT22;10370;53.102;18.034;2023-03-14T19:47:34;10.40;99.90
20422;DHT22;10370;53.102;18.034;2023-03-14T19:52:56;10.40;99.90
20422;DHT22;10370;53.102;18.034;2023-03-14T19:58:21;10.30;99.90
20422;DHT22;10370;53.102;18.034;2023-03-14T20:03:43;10.10;99.90
20422;DHT22;10370;53.102;18.034;2023-03-14T20:09:09;10.10;99.90
20422;DHT22;10370;53.102;18.034;2023-03-14T20:14:59;10.10;99.90
20422;DHT22;10370;53.102;18.034;2023-03-14T20:20:42;8.90;99.90
20422;DHT22;10370;53.102;18.034;2023-03-14T20:26:05;7.30;99.90
20422;DHT22;10370;53.102;18.034;2023-03-14T20:31:32;6.30;99.90
20422;DHT22;10370;53.102;18.034;2023-03-14T20:37:02;5.80;99.90
20422;DHT22;10370;53.102;18.034;2023-03-14T20:42:33;5.50;99.90
20422;DHT22;10370;53.102;18.034;2023-03-14T20:47:54;5.10;99.90
20422;DHT22;10370;53.102;18.034;2023-03-14T20:53:26;4.90;99.90
20422;DHT22;10370;53.102;18.034;2023-03-14T20:58:51;4.70;99.90
20422;DHT22;10370;53.102;18.034;2023-03-14T21:04:20;4.50;99.90
20422;DHT22;10370;53.102;18.034;2023-03-14T21:09:43;4.40;99.90
20422;DHT22;10370;53.102;18.034;2023-03-14T21:15:10;4.20;99.90
20422;DHT22;10370;53.102;18.034;2023-03-14T21:20:45;4.30;99.90
20422;DHT22;10370;53.102;18.034;2023-03-14T21:26:55;4.20;99.90
20422;DHT22;10370;53.102;18.034;2023-03-14T21:32:37;3.90;99.90
20422;DHT22;10370;53.102;18.034;2023-03-14T21:38:00;3.80;99.90
20422;DHT22;10370;53.102;18.034;2023-03-14T21:43:22;3.50;99.90
20422;DHT22;10370;53.102;18.034;2023-03-14T21:48:48;3.50;99.90
20422;DHT22;10370;53.102;18.034;2023-03-14T21:54:14;3.40;99.90
20422;DHT22;10370;53.102;18.034;2023-03-14T21:59:41;3.40;99.90
20422;DHT22;10370;53.102;18.034;2023-03-14T22:05:09;3.40;99.90
20422;DHT22;10370;53.102;18.034;2023-03-14T22:10:41;3.50;99.90
20422;DHT22;10370;53.102;18.034;2023-03-14T22:16:07;3.50;99.90
20422;DHT22;10370;53.102;18.034;2023-03-14T22:21:36;3.60;99.90
20422;DHT22;10370;53.102;18.034;2023-03-14T22:27:01;3.50;99.90
20422;DHT22;10370;53.102;18.034;2023-03-14T22:32:26;3.40;99.90
20422;DHT22;10370;53.102;18.034;2023-03-14T22:37:50;3.50;99.90
20422;DHT22;10370;53.102;18.034;2023-03-14T22:43:15;3.50;99.90
20422;DHT22;10370;53.102;18.034;2023-03-14T22:48:41;3.40;99.90
20422;DHT22;10370;53.102;18.034;2023-03-14T22:54:07;3.30;99.90
20422;DHT22;10370;53.102;18.034;2023-03-14T22:59:37;3.40;99.90
20422;DHT22;10370;53.102;18.034;2023-03-14T23:05:03;3.40;99.90
20422;DHT22;10370;53.102;18.034;2023-03-14T23:10:28;3.50;99.90
20422;DHT22;10370;53.102;18.034;2023-03-14T23:15:54;3.40;99.90
20422;DHT22;10370;53.102;18.034;2023-03-14T23:21:20;3.30;99.90
20422;DHT22;10370;53.102;18.034;2023-03-14T23:26:46;3.40;99.90
20422;DHT22;10370;53.102;18.034;2023-03-14T23:32:15;3.40;99.90
20422;DHT22;10370;53.102;18.034;2023-03-14T23:37:40;3.40;99.90
20422;DHT22;10370;53.102;18.034;2023-03-14T23:43:05;3.40;99.90
20422;DHT22;10370;53.102;18.034;2023-03-14T23:48:31;3.30;99.90
20422;DHT22;10370;53.102;18.034;2023-03-14T23:53:57;3.40;99.90
20422;DHT22;10370;53.102;18.034;2023-03-14T23:59:21;3.50;99.90
